Time;durP1;ratioP1;P1;durP2;ratioP2;P2;SDS_P1;SDS_P2;PMS_P1;PMS_P2;Temp;Humidity;BMP_temperature;BMP_pressure;BME280_temperature;BME280_humidity;BME280_pressure;Samples;Min_cycle;Max_cycle;Signal;HPM_P1;HPM_P2
2021/09/14 00:01:38;;;;;;;;;;;22.40;57.70;;;;;;491467;240;1149;-67
2021/09/14 00:03:39;;;;;;;;;;;22.40;57.60;;;;;;491645;240;1173;-68
2021/09/14 00:05:41;;;;;;;;;;;22.40;57.60;;;;;;491632;240;1223;-68
2021/09/14 00:07:42;;;;;;;;;;;22.40;57.50;;;;;;491658;240;1081;-67
2021/09/14 00:09:43;;;;;;;;;;;22.30;57.70;;;;;;491622;240;1067;-67
2021/09/14 00:11:45;;;;;;;;;;;22.30;57.70;;;;;;491638;240;1200;-67
2021/09/14 00:13:46;;;;;;;;;;;22.30;57.60;;;;;;491615;240;1132;-68
2021/09/14 00:15:47;;;;;;;;;;;22.40;57.40;;;;;;491587;240;2105;-68
2021/09/14 00:17:49;;;;;;;;;;;22.50;57.30;;;;;;491553;240;1087;-68
2021/09/14 00:19:50;;;;;;;;;;;22.30;57.50;;;;;;491657;240;1016;-68
2021/09/14 00:21:51;;;;;;;;;;;22.40;57.30;;;;;;491556;240;1112;-68
2021/09/14 00:23:52;;;;;;;;;;;22.30;57.40;;;;;;491638;240;1137;-67
2021/09/14 00:25:54;;;;;;;;;;;22.30;57.50;;;;;;491588;240;1229;-68
2021/09/14 00:27:55;;;;;;;;;;;22.30;57.40;;;;;;491603;240;993;-67
2021/09/14 00:29:56;;;;;;;;;;;22.30;57.50;;;;;;491614;240;1117;-68
2021/09/14 00:31:58;;;;;;;;;;;22.40;57.20;;;;;;491575;240;1189;-68
2021/09/14 00:33:59;;;;;;;;;;;22.50;57.00;;;;;;491614;240;1029;-68
2021/09/14 00:36:00;;;;;;;;;;;22.50;56.90;;;;;;491515;240;2172;-68
2021/09/14 00:38:02;;;;;;;;;;;22.40;57.00;;;;;;491571;240;1191;-68
2021/09/14 00:40:05;;;;;;;;;;;22.40;57.10;;;;;;491622;240;1013;-67
2021/09/14 00:42:04;;;;;;;;;;;22.40;57.20;;;;;;491642;240;1316;-67
2021/09/14 00:44:06;;;;;;;;;;;22.40;57.10;;;;;;491546;240;968;-67
2021/09/14 00:46:07;;;;;;;;;;;22.60;56.90;;;;;;491580;240;1087;-68
2021/09/14 00:48:08;;;;;;;;;;;22.40;56.90;;;;;;491655;240;1201;-68
2021/09/14 00:50:10;;;;;;;;;;;22.40;56.90;;;;;;491627;240;944;-67
2021/09/14 00:52:11;;;;;;;;;;;22.40;57.00;;;;;;491609;240;1266;-68
2021/09/14 00:54:12;;;;;;;;;;;22.40;57.20;;;;;;491626;240;1175;-68
2021/09/14 00:56:14;;;;;;;;;;;22.40;57.10;;;;;;491434;240;2191;-68
2021/09/14 00:58:15;;;;;;;;;;;22.40;57.10;;;;;;491561;240;1167;-68
2021/09/14 01:00:16;;;;;;;;;;;22.40;56.90;;;;;;491665;240;972;-68
2021/09/14 01:02:18;;;;;;;;;;;22.40;57.00;;;;;;491541;240;1162;-67
2021/09/14 01:04:19;;;;;;;;;;;22.40;56.80;;;;;;491656;240;1066;-68
2021/09/14 01:06:20;;;;;;;;;;;22.60;56.70;;;;;;491514;240;1110;-67
2021/09/14 01:08:22;;;;;;;;;;;22.50;56.60;;;;;;491602;240;1310;-67
2021/09/14 01:10:23;;;;;;;;;;;22.60;56.60;;;;;;491637;240;981;-67
2021/09/14 01:12:24;;;;;;;;;;;22.50;56.60;;;;;;491518;240;1119;-68
2021/09/14 01:14:26;;;;;;;;;;;22.40;56.90;;;;;;491614;240;959;-68
2021/09/14 01:16:27;;;;;;;;;;;22.50;56.70;;;;;;491530;240;2192;-68
2021/09/14 01:18:28;;;;;;;;;;;22.40;56.70;;;;;;491633;240;921;-68
2021/09/14 01:20:29;;;;;;;;;;;22.30;57.00;;;;;;491658;240;1197;-67
2021/09/14 01:22:31;;;;;;;;;;;22.40;57.00;;;;;;491524;240;1171;-67
2021/09/14 01:24:32;;;;;;;;;;;22.50;56.80;;;;;;491614;240;1182;-68
2021/09/14 01:26:34;;;;;;;;;;;22.40;56.70;;;;;;491474;240;1139;-68
2021/09/14 01:28:35;;;;;;;;;;;22.40;56.90;;;;;;491610;240;1134;-68
2021/09/14 01:30:36;;;;;;;;;;;22.30;57.00;;;;;;491598;240;1220;-67
2021/09/14 01:32:37;;;;;;;;;;;22.30;57.00;;;;;;491585;240;1071;-67
2021/09/14 01:34:39;;;;;;;;;;;22.40;56.80;;;;;;491608;240;1132;-68
2021/09/14 01:36:40;;;;;;;;;;;22.30;56.90;;;;;;491535;240;2133;-67
2021/09/14 01:38:41;;;;;;;;;;;22.40;57.00;;;;;;491596;240;1151;-68
2021/09/14 01:40:47;;;;;;;;;;;22.40;56.80;;;;;;491542;240;1361;-68
2021/09/14 01:42:45;;;;;;;;;;;22.40;56.80;;;;;;491622;240;1292;-67
2021/09/14 01:44:46;;;;;;;;;;;22.30;56.90;;;;;;491555;240;973;-68
2021/09/14 01:46:48;;;;;;;;;;;22.40;56.60;;;;;;491616;240;1197;-68
2021/09/14 01:48:49;;;;;;;;;;;22.40;56.90;;;;;;491595;240;1393;-68
2021/09/14 01:50:50;;;;;;;;;;;22.40;56.70;;;;;;491596;240;1306;-67
2021/09/14 01:52:52;;;;;;;;;;;22.40;56.80;;;;;;491560;240;1063;-68
2021/09/14 01:54:53;;;;;;;;;;;22.50;56.60;;;;;;491597;240;1375;-68
2021/09/14 01:56:54;;;;;;;;;;;22.50;56.50;;;;;;491421;240;2199;-67
2021/09/14 01:58:56;;;;;;;;;;;22.40;56.70;;;;;;491614;240;1011;-67
2021/09/14 02:01:02;;;;;;;;;;;22.60;56.20;;;;;;491613;240;1110;-68
2021/09/14 02:05:43;;;;;;;;;;;22.50;56.20;;;;;;491247;241;1142;-67
2021/09/14 02:08:00;;;;;;;;;;;22.50;56.40;;;;;;491606;240;1422;-67
2021/09/14 02:24:18;;;;;;;;;;;22.40;56.70;;;;;;491573;242;1137;-67
2021/09/14 02:56:45;;;;;;;;;;;22.30;56.60;;;;;;491527;242;2117;-68
2021/09/14 02:58:44;;;;;;;;;;;22.30;56.60;;;;;;491602;240;1396;-67
2021/09/14 03:00:44;;;;;;;;;;;22.20;56.80;;;;;;491590;240;1421;-68
2021/09/14 03:02:45;;;;;;;;;;;22.20;57.00;;;;;;491507;240;1211;-68
2021/09/14 03:04:46;;;;;;;;;;;22.20;57.00;;;;;;491697;240;1126;-68
2021/09/14 03:06:47;;;;;;;;;;;22.10;57.00;;;;;;491577;240;1358;-67
2021/09/14 03:08:49;;;;;;;;;;;22.20;57.00;;;;;;491651;240;964;-68
2021/09/14 03:10:50;;;;;;;;;;;22.20;56.90;;;;;;491623;240;1136;-68
2021/09/14 03:12:51;;;;;;;;;;;22.10;57.00;;;;;;491572;240;1088;-68
2021/09/14 03:14:53;;;;;;;;;;;22.20;57.00;;;;;;491725;240;1060;-68
2021/09/14 03:16:54;;;;;;;;;;;22.20;57.00;;;;;;491542;240;2203;-68
2021/09/14 03:18:55;;;;;;;;;;;22.20;56.90;;;;;;491713;242;1347;-67
2021/09/14 03:20:57;;;;;;;;;;;22.20;56.80;;;;;;491509;240;1212;-68
2021/09/14 03:22:58;;;;;;;;;;;22.20;56.80;;;;;;491609;240;1138;-68
2021/09/14 03:24:59;;;;;;;;;;;22.20;56.80;;;;;;491651;240;1151;-68
2021/09/14 03:27:01;;;;;;;;;;;22.20;56.80;;;;;;491450;240;1202;-67
2021/09/14 03:29:02;;;;;;;;;;;22.20;56.70;;;;;;491618;240;1086;-68
2021/09/14 03:31:04;;;;;;;;;;;22.20;56.70;;;;;;491559;240;1214;-68
2021/09/14 03:33:05;;;;;;;;;;;22.30;56.50;;;;;;491616;240;1200;-67
2021/09/14 03:35:06;;;;;;;;;;;22.30;56.40;;;;;;491602;240;1076;-67
2021/09/14 03:37:08;;;;;;;;;;;22.20;56.60;;;;;;491560;240;2112;-68
2021/09/14 03:39:09;;;;;;;;;;;22.30;56.60;;;;;;491604;240;1053;-68
2021/09/14 03:41:10;;;;;;;;;;;22.20;56.60;;;;;;491662;240;1275;-68
2021/09/14 03:43:13;;;;;;;;;;;22.20;56.70;;;;;;491638;240;1048;-68
2021/09/14 03:45:13;;;;;;;;;;;22.20;56.80;;;;;;491647;240;1265;-67
2021/09/14 03:47:15;;;;;;;;;;;22.20;56.70;;;;;;491604;240;1080;-68
2021/09/14 03:49:16;;;;;;;;;;;22.20;56.60;;;;;;491584;240;1064;-68
2021/09/14 03:51:17;;;;;;;;;;;22.20;56.60;;;;;;491504;240;1012;-68
2021/09/14 03:53:19;;;;;;;;;;;22.20;56.50;;;;;;491574;240;1036;-68
2021/09/14 03:55:20;;;;;;;;;;;22.20;56.40;;;;;;491569;240;1171;-68
2021/09/14 03:57:21;;;;;;;;;;;22.20;56.40;;;;;;491471;240;2188;-68
2021/09/14 03:59:23;;;;;;;;;;;22.20;56.50;;;;;;491628;240;943;-68
2021/09/14 04:01:24;;;;;;;;;;;22.20;56.50;;;;;;491556;242;1111;-67
2021/09/14 04:03:36;;;;;;;;;;;22.30;56.40;;;;;;491558;240;1047;-67
2021/09/14 04:05:37;;;;;;;;;;;22.20;56.30;;;;;;491597;240;1517;-67
2021/09/14 04:07:49;;;;;;;;;;;22.30;56.30;;;;;;491548;240;1672;-67
2021/09/14 04:09:40;;;;;;;;;;;22.30;56.10;;;;;;491593;240;1537;-67
2021/09/14 04:11:42;;;;;;;;;;;22.20;56.30;;;;;;491509;240;1242;-67
2021/09/14 04:13:43;;;;;;;;;;;22.20;56.30;;;;;;491541;240;988;-67
2021/09/14 04:15:44;;;;;;;;;;;22.20;56.30;;;;;;491566;240;1106;-67
2021/09/14 04:17:46;;;;;;;;;;;22.30;56.20;;;;;;491517;240;2112;-67
2021/09/14 04:19:47;;;;;;;;;;;22.30;56.10;;;;;;491484;240;952;-67
2021/09/14 04:21:50;;;;;;;;;;;22.20;56.20;;;;;;491474;240;1322;-67
2021/09/14 04:23:50;;;;;;;;;;;22.30;55.90;;;;;;491499;240;1392;-67
2021/09/14 04:25:51;;;;;;;;;;;22.20;56.10;;;;;;491496;240;1191;-67
2021/09/14 04:27:53;;;;;;;;;;;22.20;56.00;;;;;;491429;240;1165;-67
2021/09/14 04:29:54;;;;;;;;;;;22.20;56.20;;;;;;491426;240;1154;-67
2021/09/14 04:31:55;;;;;;;;;;;22.30;55.90;;;;;;491368;240;1122;-67
2021/09/14 04:33:57;;;;;;;;;;;22.40;55.90;;;;;;491474;240;1102;-67
2021/09/14 04:35:58;;;;;;;;;;;22.30;55.70;;;;;;491493;240;1244;-67
2021/09/14 04:37:59;;;;;;;;;;;22.30;55.70;;;;;;491458;240;2133;-67
2021/09/14 04:40:01;;;;;;;;;;;22.30;55.80;;;;;;491479;240;1255;-67
2021/09/14 04:42:02;;;;;;;;;;;22.30;55.70;;;;;;491422;240;1185;-67
2021/09/14 04:44:03;;;;;;;;;;;22.40;55.70;;;;;;491364;240;940;-67
2021/09/14 04:46:04;;;;;;;;;;;22.30;55.70;;;;;;491333;240;1318;-67
2021/09/14 04:48:06;;;;;;;;;;;22.30;55.70;;;;;;491340;240;1117;-67
2021/09/14 04:50:07;;;;;;;;;;;22.30;55.80;;;;;;491360;240;1041;-67
2021/09/14 04:52:08;;;;;;;;;;;22.20;56.00;;;;;;491304;240;1109;-67
2021/09/14 04:54:10;;;;;;;;;;;22.20;55.80;;;;;;491460;240;980;-67
2021/09/14 04:56:11;;;;;;;;;;;22.30;55.80;;;;;;491081;240;1236;-67
2021/09/14 04:58:12;;;;;;;;;;;22.20;55.80;;;;;;491373;240;2106;-67
2021/09/14 05:00:15;;;;;;;;;;;22.30;55.80;;;;;;491330;240;1068;-67
2021/09/14 05:02:15;;;;;;;;;;;22.30;55.60;;;;;;491238;240;1380;-67
2021/09/14 05:04:17;;;;;;;;;;;22.20;55.70;;;;;;491256;240;1176;-67
2021/09/14 05:06:18;;;;;;;;;;;22.30;55.70;;;;;;491242;240;1208;-67
2021/09/14 05:08:19;;;;;;;;;;;22.30;55.50;;;;;;491218;240;1038;-67
2021/09/14 05:10:21;;;;;;;;;;;22.20;55.60;;;;;;491230;240;1231;-67
2021/09/14 05:12:22;;;;;;;;;;;22.30;55.60;;;;;;491145;240;1017;-67
2021/09/14 05:14:23;;;;;;;;;;;22.30;55.70;;;;;;491131;240;1014;-67
2021/09/14 05:16:25;;;;;;;;;;;22.40;55.50;;;;;;491000;240;1169;-67
2021/09/14 05:18:27;;;;;;;;;;;22.30;55.70;;;;;;491161;240;2196;-67
2021/09/14 05:20:27;;;;;;;;;;;22.20;55.80;;;;;;491098;240;1407;-67
2021/09/14 05:22:32;;;;;;;;;;;22.20;55.80;;;;;;491100;240;1130;-67
2021/09/14 05:24:33;;;;;;;;;;;22.20;55.80;;;;;;491379;240;1479;-67
2021/09/14 05:26:34;;;;;;;;;;;22.30;55.70;;;;;;491278;240;1259;-67
2021/09/14 05:28:36;;;;;;;;;;;22.20;55.80;;;;;;491203;240;1102;-67
2021/09/14 05:30:37;;;;;;;;;;;22.30;55.70;;;;;;491314;240;1221;-67
2021/09/14 05:32:39;;;;;;;;;;;22.30;55.80;;;;;;491212;240;1112;-67
2021/09/14 05:34:40;;;;;;;;;;;22.40;55.50;;;;;;491249;240;942;-67
2021/09/14 05:36:41;;;;;;;;;;;22.20;55.60;;;;;;491166;240;1149;-67
2021/09/14 05:38:43;;;;;;;;;;;22.20;55.90;;;;;;491231;240;2164;-67
2021/09/14 05:40:44;;;;;;;;;;;22.10;56.00;;;;;;490980;240;1269;-67
2021/09/14 05:42:45;;;;;;;;;;;22.20;56.10;;;;;;491121;240;1194;-67
2021/09/14 05:44:47;;;;;;;;;;;22.20;56.00;;;;;;491123;240;1261;-67
2021/09/14 05:46:48;;;;;;;;;;;22.20;56.00;;;;;;491133;240;1219;-67
2021/09/14 05:48:49;;;;;;;;;;;22.20;56.00;;;;;;491176;240;962;-67
2021/09/14 05:50:51;;;;;;;;;;;22.20;56.00;;;;;;491097;240;1216;-67
2021/09/14 05:52:52;;;;;;;;;;;22.20;55.80;;;;;;491049;240;1165;-67
2021/09/14 05:54:53;;;;;;;;;;;22.20;55.90;;;;;;490969;241;980;-67
2021/09/14 05:56:54;;;;;;;;;;;22.20;56.10;;;;;;490718;241;1306;-67
2021/09/14 05:58:56;;;;;;;;;;;22.20;56.00;;;;;;490799;240;2175;-67
2021/09/14 06:00:57;;;;;;;;;;;22.30;55.80;;;;;;490719;240;1050;-67
2021/09/14 06:02:59;;;;;;;;;;;22.30;55.80;;;;;;490790;240;1105;-67
2021/09/14 06:05:00;;;;;;;;;;;22.30;55.80;;;;;;490788;240;1140;-67
2021/09/14 06:07:01;;;;;;;;;;;22.30;55.80;;;;;;490822;240;1104;-67
2021/09/14 06:09:03;;;;;;;;;;;22.40;56.00;;;;;;490790;240;1052;-67
2021/09/14 06:11:04;;;;;;;;;;;22.30;55.90;;;;;;490852;240;1162;-67
2021/09/14 06:13:06;;;;;;;;;;;22.30;56.00;;;;;;490905;240;1046;-67
2021/09/14 06:15:07;;;;;;;;;;;22.20;56.10;;;;;;490805;240;1043;-67
2021/09/14 06:17:08;;;;;;;;;;;22.30;55.90;;;;;;490833;240;1037;-67
2021/09/14 06:19:11;;;;;;;;;;;22.40;55.80;;;;;;490726;240;2172;-67
2021/09/14 06:21:13;;;;;;;;;;;22.30;56.10;;;;;;490613;241;2132;-68
2021/09/14 06:23:12;;;;;;;;;;;22.30;56.00;;;;;;490757;240;1349;-67
2021/09/14 06:25:14;;;;;;;;;;;22.40;56.10;;;;;;490781;240;1096;-67
2021/09/14 06:27:15;;;;;;;;;;;22.30;55.90;;;;;;490578;241;1201;-67
2021/09/14 06:29:16;;;;;;;;;;;22.30;56.20;;;;;;490739;240;1014;-67
2021/09/14 06:31:19;;;;;;;;;;;22.20;56.30;;;;;;490520;240;1242;-67
2021/09/14 06:33:19;;;;;;;;;;;22.30;56.20;;;;;;490732;240;1298;-67
2021/09/14 06:35:20;;;;;;;;;;;22.40;56.30;;;;;;490633;240;1065;-67
2021/09/14 06:37:22;;;;;;;;;;;22.40;56.20;;;;;;490594;240;1102;-67
2021/09/14 06:39:23;;;;;;;;;;;22.30;56.40;;;;;;490779;240;2121;-67
2021/09/14 06:41:25;;;;;;;;;;;22.30;56.40;;;;;;490577;240;1219;-68
2021/09/14 06:43:26;;;;;;;;;;;22.30;56.40;;;;;;490721;241;2388;-67
2021/09/14 06:45:27;;;;;;;;;;;22.30;56.50;;;;;;490079;240;1014;-67
2021/09/14 06:47:28;;;;;;;;;;;22.30;56.50;;;;;;490359;241;1220;-67
2021/09/14 06:49:30;;;;;;;;;;;22.30;56.60;;;;;;490597;240;1068;-67
2021/09/14 06:51:31;;;;;;;;;;;22.20;56.70;;;;;;490645;240;1375;-67
2021/09/14 06:53:32;;;;;;;;;;;22.30;56.70;;;;;;490659;240;1097;-67
2021/09/14 06:55:33;;;;;;;;;;;22.30;56.60;;;;;;490650;240;1169;-68
2021/09/14 06:57:35;;;;;;;;;;;22.30;56.50;;;;;;490497;240;1217;-68
2021/09/14 06:59:36;;;;;;;;;;;22.30;56.70;;;;;;490464;240;2125;-67
2021/09/14 07:01:37;;;;;;;;;;;22.40;56.60;;;;;;490201;240;1364;-67
2021/09/14 07:03:39;;;;;;;;;;;22.30;56.70;;;;;;490302;240;1058;-67
2021/09/14 07:05:40;;;;;;;;;;;22.30;56.90;;;;;;490435;241;1102;-67
2021/09/14 07:07:41;;;;;;;;;;;22.40;56.70;;;;;;490447;240;1287;-68
2021/09/14 07:09:43;;;;;;;;;;;22.40;56.60;;;;;;490425;240;1119;-68
2021/09/14 07:11:44;;;;;;;;;;;22.40;56.70;;;;;;490370;240;1468;-68
2021/09/14 07:13:46;;;;;;;;;;;22.40;56.80;;;;;;490452;240;1056;-67
2021/09/14 07:15:47;;;;;;;;;;;22.40;56.90;;;;;;490526;240;1057;-67
2021/09/14 07:17:48;;;;;;;;;;;22.60;56.70;;;;;;490439;240;1225;-68
2021/09/14 07:19:51;;;;;;;;;;;22.60;56.40;;;;;;490116;241;2171;-67
2021/09/14 07:21:51;;;;;;;;;;;22.40;56.80;;;;;;490431;241;1356;-68
2021/09/14 07:23:52;;;;;;;;;;;22.50;56.80;;;;;;490571;240;1105;-68
2021/09/14 07:25:53;;;;;;;;;;;22.40;57.10;;;;;;490444;241;1395;-68
2021/09/14 07:27:55;;;;;;;;;;;22.40;57.00;;;;;;490474;240;1312;-68
2021/09/14 07:29:56;;;;;;;;;;;22.50;57.10;;;;;;490566;240;1086;-67
2021/09/14 07:31:57;;;;;;;;;;;22.40;57.10;;;;;;490517;240;1149;-68
2021/09/14 07:33:59;;;;;;;;;;;22.50;56.90;;;;;;490486;240;1092;-68
2021/09/14 07:36:00;;;;;;;;;;;22.60;56.80;;;;;;490589;240;1289;-68
2021/09/14 07:38:01;;;;;;;;;;;22.50;57.00;;;;;;490529;240;1163;-68
2021/09/14 07:40:03;;;;;;;;;;;22.40;57.30;;;;;;490460;240;2196;-68
2021/09/14 07:42:04;;;;;;;;;;;22.60;56.60;;;;;;490562;240;1280;-68
2021/09/14 07:44:06;;;;;;;;;;;22.50;56.90;;;;;;491106;241;786;-67
2021/09/14 07:46:09;;;;;;;;;;;22.50;57.20;;;;;;490917;241;1329;-67
2021/09/14 07:48:09;;;;;;;;;;;22.40;57.30;;;;;;490139;240;1276;-67
2021/09/14 07:50:11;;;;;;;;;;;22.40;57.30;;;;;;490682;240;769;-67
2021/09/14 07:52:12;;;;;;;;;;;22.40;57.40;;;;;;490264;240;1047;-67
2021/09/14 07:54:14;;;;;;;;;;;22.40;57.50;;;;;;490371;240;770;-67
2021/09/14 07:56:15;;;;;;;;;;;22.40;57.50;;;;;;490751;240;806;-67
2021/09/14 07:58:16;;;;;;;;;;;22.70;57.20;;;;;;489251;240;2191;-67
2021/09/14 08:00:18;;;;;;;;;;;22.50;57.10;;;;;;490474;240;783;-67
2021/09/14 08:02:19;;;;;;;;;;;22.40;57.20;;;;;;490800;240;1089;-67
2021/09/14 08:04:20;;;;;;;;;;;22.40;57.40;;;;;;490465;240;755;-68
2021/09/14 08:06:21;;;;;;;;;;;22.40;57.60;;;;;;490480;240;1365;-68
2021/09/14 08:08:23;;;;;;;;;;;22.40;57.70;;;;;;490953;240;796;-67
2021/09/14 08:10:24;;;;;;;;;;;22.40;57.70;;;;;;491194;240;1188;-67
2021/09/14 08:12:25;;;;;;;;;;;22.40;57.60;;;;;;490715;240;1077;-67
2021/09/14 08:14:27;;;;;;;;;;;22.40;57.50;;;;;;490820;240;824;-67
2021/09/14 08:16:28;;;;;;;;;;;22.50;57.50;;;;;;490614;240;1285;-67
2021/09/14 08:18:29;;;;;;;;;;;22.40;57.60;;;;;;490818;240;2184;-67
2021/09/14 08:20:31;;;;;;;;;;;22.30;57.90;;;;;;490949;240;1403;-67
2021/09/14 08:22:32;;;;;;;;;;;22.30;58.00;;;;;;490588;240;1067;-67
2021/09/14 08:24:33;;;;;;;;;;;22.30;58.00;;;;;;491047;241;778;-67
2021/09/14 08:26:35;;;;;;;;;;;22.40;57.80;;;;;;490951;240;1176;-67
2021/09/14 08:28:36;;;;;;;;;;;22.30;57.90;;;;;;490586;240;1104;-67
2021/09/14 08:30:37;;;;;;;;;;;22.30;58.20;;;;;;491067;240;1404;-67
2021/09/14 08:32:39;;;;;;;;;;;22.20;58.40;;;;;;490547;240;1225;-67
2021/09/14 08:34:40;;;;;;;;;;;22.30;58.40;;;;;;491018;240;831;-67
2021/09/14 08:36:41;;;;;;;;;;;22.30;58.40;;;;;;490842;240;1344;-67
2021/09/14 08:38:44;;;;;;;;;;;22.20;58.50;;;;;;490833;240;2183;-67
2021/09/14 08:40:44;;;;;;;;;;;22.20;58.60;;;;;;490848;240;1322;-68
2021/09/14 08:42:45;;;;;;;;;;;22.20;58.60;;;;;;490741;240;1065;-68
2021/09/14 08:44:47;;;;;;;;;;;22.30;58.60;;;;;;490413;240;770;-68
2021/09/14 08:46:48;;;;;;;;;;;22.30;58.50;;;;;;490664;240;1265;-68
2021/09/14 08:48:49;;;;;;;;;;;22.30;58.50;;;;;;490799;240;848;-67
2021/09/14 08:50:51;;;;;;;;;;;22.30;58.50;;;;;;490464;240;1339;-67
2021/09/14 08:52:52;;;;;;;;;;;22.20;58.70;;;;;;491077;240;985;-68
2021/09/14 08:54:53;;;;;;;;;;;22.30;58.60;;;;;;491142;240;720;-67
2021/09/14 08:56:55;;;;;;;;;;;22.40;58.60;;;;;;490575;240;1047;-67
2021/09/14 08:58:56;;;;;;;;;;;22.30;58.60;;;;;;490917;240;2176;-68
2021/09/14 09:00:58;;;;;;;;;;;22.30;58.70;;;;;;491065;240;1587;-67
2021/09/14 09:02:59;;;;;;;;;;;22.30;58.70;;;;;;490576;240;1262;-68
2021/09/14 09:05:00;;;;;;;;;;;22.30;58.80;;;;;;490804;240;783;-68
2021/09/14 09:07:02;;;;;;;;;;;22.30;58.90;;;;;;490618;240;1248;-68
2021/09/14 09:09:03;;;;;;;;;;;22.20;58.90;;;;;;490949;240;794;-67
2021/09/14 09:11:04;;;;;;;;;;;22.20;59.00;;;;;;491008;240;1457;-67
2021/09/14 09:13:06;;;;;;;;;;;22.20;59.10;;;;;;490598;240;1106;-67
2021/09/14 09:15:07;;;;;;;;;;;22.10;59.10;;;;;;490622;240;828;-67
2021/09/14 09:17:08;;;;;;;;;;;22.20;59.10;;;;;;490398;240;1112;-67
2021/09/14 09:19:09;;;;;;;;;;;22.20;59.30;;;;;;490467;240;2172;-67
2021/09/14 09:21:11;;;;;;;;;;;22.10;59.30;;;;;;490898;240;1449;-67
2021/09/14 09:23:12;;;;;;;;;;;22.10;59.50;;;;;;490990;240;1159;-68
2021/09/14 09:25:13;;;;;;;;;;;22.10;59.60;;;;;;490933;240;779;-67
2021/09/14 09:27:15;;;;;;;;;;;22.10;59.60;;;;;;490783;240;1002;-67
2021/09/14 09:29:16;;;;;;;;;;;22.10;59.70;;;;;;490525;240;1374;-68
2021/09/14 09:31:17;;;;;;;;;;;22.10;59.70;;;;;;490751;240;1106;-68
2021/09/14 09:33:19;;;;;;;;;;;22.10;59.60;;;;;;490774;240;1465;-67
2021/09/14 09:35:20;;;;;;;;;;;22.10;59.60;;;;;;491071;240;769;-67
2021/09/14 09:37:21;;;;;;;;;;;22.10;59.60;;;;;;490625;240;1103;-67
2021/09/14 09:39:23;;;;;;;;;;;22.10;59.60;;;;;;490446;240;2204;-67
2021/09/14 09:41:24;;;;;;;;;;;22.10;59.70;;;;;;490624;240;784;-67
2021/09/14 09:43:25;;;;;;;;;;;22.10;59.70;;;;;;490364;240;1039;-67
2021/09/14 09:45:27;;;;;;;;;;;22.10;59.80;;;;;;490545;240;746;-67
2021/09/14 09:47:28;;;;;;;;;;;22.70;58.60;;;;;;490932;240;723;-67
2021/09/14 09:49:29;;;;;;;;;;;22.70;58.10;;;;;;490998;240;769;-67
2021/09/14 09:51:31;;;;;;;;;;;23.30;57.00;;;;;;491022;240;1080;-67
2021/09/14 09:53:32;;;;;;;;;;;23.40;56.30;;;;;;490988;240;822;-67
2021/09/14 09:55:34;;;;;;;;;;;23.70;55.60;;;;;;490592;242;1458;-67
2021/09/14 09:57:35;;;;;;;;;;;23.70;55.80;;;;;;490473;240;1203;-67
2021/09/14 09:59:36;;;;;;;;;;;24.30;54.60;;;;;;490613;240;2180;-67
2021/09/14 10:01:37;;;;;;;;;;;23.50;55.50;;;;;;490699;240;1001;-67
2021/09/14 10:03:39;;;;;;;;;;;24.00;55.10;;;;;;490282;240;776;-67
2021/09/14 10:05:40;;;;;;;;;;;24.10;54.50;;;;;;490903;240;1240;-67
2021/09/14 10:07:41;;;;;;;;;;;23.90;55.20;;;;;;490425;240;1173;-67
2021/09/14 10:09:43;;;;;;;;;;;23.90;55.10;;;;;;491090;240;784;-67
2021/09/14 10:11:44;;;;;;;;;;;23.70;55.20;;;;;;491048;240;995;-67
2021/09/14 10:13:45;;;;;;;;;;;23.70;55.60;;;;;;491000;240;1067;-67
2021/09/14 10:15:46;;;;;;;;;;;24.20;54.60;;;;;;490915;240;1420;-68
2021/09/14 10:17:48;;;;;;;;;;;23.80;55.20;;;;;;490444;240;1083;-67
2021/09/14 10:19:49;;;;;;;;;;;23.70;55.50;;;;;;490777;240;2172;-67
2021/09/14 10:21:51;;;;;;;;;;;24.00;55.20;;;;;;490600;240;1187;-67
2021/09/14 10:23:52;;;;;;;;;;;23.70;55.70;;;;;;490783;240;762;-67
2021/09/14 10:25:53;;;;;;;;;;;24.10;55.20;;;;;;490813;240;1395;-67
2021/09/14 10:27:56;;;;;;;;;;;24.00;54.80;;;;;;490850;240;991;-67
2021/09/14 10:29:56;;;;;;;;;;;24.30;54.70;;;;;;490904;240;1403;-67
2021/09/14 10:31:57;;;;;;;;;;;24.00;54.60;;;;;;491068;240;1034;-68
2021/09/14 10:33:59;;;;;;;;;;;24.20;54.50;;;;;;491057;240;746;-68
2021/09/14 10:36:00;;;;;;;;;;;24.40;54.00;;;;;;490991;240;1488;-68
2021/09/14 10:38:01;;;;;;;;;;;24.60;53.70;;;;;;490587;240;1062;-68
2021/09/14 10:40:03;;;;;;;;;;;24.30;54.20;;;;;;490736;240;2196;-67
2021/09/14 10:42:04;;;;;;;;;;;24.40;54.10;;;;;;490536;240;1023;-67
2021/09/14 10:44:07;;;;;;;;;;;24.50;54.10;;;;;;490760;240;1088;-67
2021/09/14 10:46:07;;;;;;;;;;;24.80;53.10;;;;;;490762;240;1427;-67
2021/09/14 10:48:08;;;;;;;;;;;24.30;53.90;;;;;;490739;240;1260;-67
2021/09/14 10:50:10;;;;;;;;;;;24.50;54.20;;;;;;490420;240;728;-67
2021/09/14 10:52:11;;;;;;;;;;;24.30;54.30;;;;;;490869;240;1046;-67
2021/09/14 10:54:12;;;;;;;;;;;24.50;54.00;;;;;;490877;240;972;-67
2021/09/14 10:56:14;;;;;;;;;;;24.30;54.40;;;;;;490499;240;1501;-67
2021/09/14 10:58:15;;;;;;;;;;;24.60;53.50;;;;;;490988;240;1036;-67
2021/09/14 11:00:16;;;;;;;;;;;24.30;54.40;;;;;;490796;240;2191;-67
2021/09/14 11:02:17;;;;;;;;;;;24.50;53.90;;;;;;490955;240;1252;-68
2021/09/14 11:04:19;;;;;;;;;;;24.40;53.60;;;;;;491077;240;615;-68
2021/09/14 11:06:20;;;;;;;;;;;24.30;54.50;;;;;;490369;240;1430;-67
2021/09/14 11:08:21;;;;;;;;;;;24.50;53.90;;;;;;489859;243;1313;-67
2021/09/14 11:10:23;;;;;;;;;;;24.20;54.40;;;;;;489730;241;788;-67
2021/09/14 11:12:24;;;;;;;;;;;24.50;53.90;;;;;;490455;241;986;-67
2021/09/14 11:14:25;;;;;;;;;;;24.10;54.30;;;;;;490481;240;789;-67
2021/09/14 11:16:27;;;;;;;;;;;24.00;55.00;;;;;;490658;240;1461;-67
2021/09/14 11:18:29;;;;;;;;;;;24.30;54.40;;;;;;490606;240;1016;-67
2021/09/14 11:20:30;;;;;;;;;;;24.50;53.50;;;;;;490330;240;2192;-67
2021/09/14 11:22:31;;;;;;;;;;;24.30;54.40;;;;;;490088;240;1366;-67
2021/09/14 11:24:32;;;;;;;;;;;24.30;54.00;;;;;;490889;240;704;-67
2021/09/14 11:26:33;;;;;;;;;;;24.60;53.30;;;;;;490396;240;1255;-67
2021/09/14 11:28:35;;;;;;;;;;;24.60;53.50;;;;;;490576;240;1065;-67
2021/09/14 11:30:36;;;;;;;;;;;24.60;53.20;;;;;;490817;240;1161;-67
2021/09/14 11:32:37;;;;;;;;;;;24.50;53.60;;;;;;490582;240;1355;-67
2021/09/14 11:34:39;;;;;;;;;;;24.40;53.60;;;;;;491075;240;805;-67
2021/09/14 11:36:40;;;;;;;;;;;24.30;53.70;;;;;;490626;240;1354;-67
2021/09/14 11:38:41;;;;;;;;;;;24.60;53.40;;;;;;490577;240;1064;-67
2021/09/14 11:40:43;;;;;;;;;;;24.40;53.70;;;;;;490563;240;2196;-67
2021/09/14 11:42:44;;;;;;;;;;;24.30;53.60;;;;;;491018;240;991;-67
2021/09/14 11:44:45;;;;;;;;;;;24.50;53.90;;;;;;491026;240;798;-67
2021/09/14 11:46:46;;;;;;;;;;;24.70;53.30;;;;;;490405;240;1103;-67
2021/09/14 11:48:48;;;;;;;;;;;24.20;53.70;;;;;;490939;240;855;-67
2021/09/14 11:50:49;;;;;;;;;;;24.50;53.50;;;;;;490327;240;817;-67
2021/09/14 11:52:50;;;;;;;;;;;24.80;53.10;;;;;;490815;240;789;-67
2021/09/14 11:54:52;;;;;;;;;;;24.50;53.40;;;;;;491044;240;785;-67
2021/09/14 11:56:53;;;;;;;;;;;24.50;53.40;;;;;;491016;240;1117;-67
2021/09/14 11:58:54;;;;;;;;;;;24.40;53.60;;;;;;491114;240;785;-67
2021/09/14 12:00:56;;;;;;;;;;;24.60;53.30;;;;;;490617;240;2172;-67
2021/09/14 12:02:57;;;;;;;;;;;24.70;53.10;;;;;;490882;240;1196;-67
2021/09/14 12:04:58;;;;;;;;;;;24.40;53.40;;;;;;490940;240;848;-68
2021/09/14 12:07:00;;;;;;;;;;;24.30;54.00;;;;;;490869;240;1026;-68
2021/09/14 12:09:01;;;;;;;;;;;24.50;53.10;;;;;;490866;240;984;-68
2021/09/14 12:11:02;;;;;;;;;;;24.50;53.60;;;;;;491110;240;1031;-68
2021/09/14 12:13:04;;;;;;;;;;;24.60;53.00;;;;;;491071;240;1219;-68
2021/09/14 12:15:05;;;;;;;;;;;24.40;53.60;;;;;;490378;240;1063;-68
2021/09/14 12:17:07;;;;;;;;;;;24.50;53.00;;;;;;490448;240;1045;-68
2021/09/14 12:19:08;;;;;;;;;;;24.40;53.70;;;;;;491055;240;1263;-68
2021/09/14 12:21:09;;;;;;;;;;;24.80;52.70;;;;;;491054;240;2176;-68
2021/09/14 12:23:10;;;;;;;;;;;24.40;53.30;;;;;;491005;240;989;-68
2021/09/14 12:25:11;;;;;;;;;;;24.50;53.00;;;;;;490542;240;769;-68
2021/09/14 12:27:13;;;;;;;;;;;24.40;53.30;;;;;;490723;240;1340;-68
2021/09/14 12:29:14;;;;;;;;;;;24.40;53.30;;;;;;490472;240;934;-68
2021/09/14 12:31:15;;;;;;;;;;;24.70;53.10;;;;;;490630;242;1227;-68
2021/09/14 12:33:17;;;;;;;;;;;24.90;52.40;;;;;;490365;240;974;-68
2021/09/14 12:35:18;;;;;;;;;;;24.40;53.20;;;;;;490922;240;808;-68
2021/09/14 12:37:19;;;;;;;;;;;24.90;52.40;;;;;;490877;240;1349;-68
2021/09/14 12:39:21;;;;;;;;;;;24.20;53.50;;;;;;490976;240;769;-68
2021/09/14 12:41:22;;;;;;;;;;;24.60;53.10;;;;;;491068;240;2204;-68
2021/09/14 12:43:23;;;;;;;;;;;24.50;53.30;;;;;;490632;240;798;-68
2021/09/14 12:45:25;;;;;;;;;;;24.40;52.90;;;;;;490821;240;769;-68
2021/09/14 12:47:26;;;;;;;;;;;24.40;53.50;;;;;;490363;240;1284;-68